Time;durP1;ratioP1;P1;durP2;ratioP2;P2;SDS_P1;SDS_P2;PMS_P1;PMS_P2;Temp;Humidity;BMP_temperature;BMP_pressure;BME280_temperature;BME280_humidity;BME280_pressure;Samples;Min_cycle;Max_cycle;Signal;HPM_P1;HPM_P2
2022/01/07 00:01:21;;;;;;;14.87;9.03;;;;;;;3.03;80.16;100459.91;1788991;80;20836;-78
2022/01/07 00:03:48;;;;;;;12.33;7.55;;;;;;;3.03;80.23;100463.80;1789435;80;21471;-79
2022/01/07 00:06:14;;;;;;;15.35;8.40;;;;;;;3.06;80.39;100460.25;1789142;79;20942;-80
2022/01/07 00:08:42;;;;;;;17.42;8.60;;;;;;;3.08;80.44;100457.17;1789077;79;20927;-80
2022/01/07 00:11:08;;;;;;;13.88;9.98;;;;;;;3.14;80.62;100465.20;1789277;79;22139;-79
2022/01/07 00:13:36;;;;;;;13.05;10.05;;;;;;;3.21;80.68;100468.00;1789020;79;20974;-79
2022/01/07 00:16:03;;;;;;;13.38;10.58;;;;;;;3.29;80.65;100469.88;1789039;80;20931;-79
2022/01/07 00:18:32;;;;;;;11.55;8.33;;;;;;;3.34;80.50;100469.30;1789112;79;20860;-79
2022/01/07 00:20:59;;;;;;;14.38;9.58;;;;;;;3.38;80.28;100462.25;1789372;79;20939;-78
2022/01/07 00:23:26;;;;;;;11.20;7.85;;;;;;;3.41;80.05;100456.98;1791153;80;22122;-78
2022/01/07 00:25:53;;;;;;;14.65;8.23;;;;;;;3.40;79.79;100457.44;1789952;79;20875;-78
2022/01/07 00:28:19;;;;;;;11.78;7.78;;;;;;;3.39;79.56;100453.59;1791950;79;20904;-78
2022/01/07 00:30:46;;;;;;;10.23;7.60;;;;;;;3.36;79.52;100453.25;1789542;79;20880;-79
2022/01/07 00:33:14;;;;;;;14.28;8.10;;;;;;;3.34;79.49;100457.63;1789441;79;21408;-79
2022/01/07 00:35:41;;;;;;;12.20;7.97;;;;;;;3.33;79.46;100462.40;1789233;79;21186;-79
2022/01/07 00:38:07;;;;;;;12.55;8.40;;;;;;;3.35;79.50;100472.73;1789088;79;20833;-79
2022/01/07 00:40:34;;;;;;;10.32;8.55;;;;;;;3.32;79.49;100480.16;1789164;80;20923;-79
2022/01/07 00:43:01;;;;;;;14.90;8.18;;;;;;;3.34;79.46;100486.59;1789066;79;20903;-79
2022/01/07 00:45:28;;;;;;;12.98;8.53;;;;;;;3.29;79.30;100484.13;1789129;79;20958;-79
2022/01/07 00:47:55;;;;;;;16.85;9.23;;;;;;;3.24;79.34;100484.27;1794121;80;21581;-78
2022/01/07 00:50:22;;;;;;;15.80;9.40;;;;;;;3.22;79.28;100495.13;1794601;79;20923;-79
2022/01/07 00:52:49;;;;;;;10.70;8.58;;;;;;;3.17;79.24;100499.62;1794705;80;20966;-79
2022/01/07 00:55:16;;;;;;;11.80;7.97;;;;;;;3.08;79.13;100498.16;1794643;79;20966;-79
2022/01/07 00:57:43;;;;;;;12.00;8.45;;;;;;;3.02;79.13;100504.82;1794612;79;21372;-80
2022/01/07 01:00:13;;;;;;;15.35;8.73;;;;;;;2.95;79.12;100503.32;1794743;80;21482;-78
2022/01/07 01:02:40;;;;;;;11.68;8.53;;;;;;;2.88;79.46;100497.93;1794718;80;20887;-80
2022/01/07 01:05:08;;;;;;;13.10;7.70;;;;;;;2.87;79.69;100497.09;1794586;79;20994;-79
2022/01/07 01:07:35;;;;;;;14.78;9.35;;;;;;;2.87;79.75;100496.25;1794699;79;21479;-78
2022/01/07 01:10:07;;;;;;;14.63;9.95;;;;;;;2.85;79.72;100495.45;1794848;79;20875;-79
2022/01/07 01:12:35;;;;;;;13.38;9.63;;;;;;;2.85;80.00;100492.41;1794995;80;21130;-79
2022/01/07 01:15:06;;;;;;;15.90;9.50;;;;;;;2.90;80.19;100493.56;1794045;80;21441;-80
2022/01/07 01:17:33;;;;;;;16.12;10.30;;;;;;;2.94;80.18;100491.28;1795453;79;20956;-78
2022/01/07 01:19:59;;;;;;;25.65;11.80;;;;;;;2.97;80.18;100489.88;1795213;79;21028;-80
2022/01/07 01:22:26;;;;;;;29.48;16.82;;;;;;;2.99;80.08;100485.95;1795158;80;20923;-80
2022/01/07 01:24:53;;;;;;;34.30;19.20;;;;;;;2.99;79.89;100480.31;1794579;80;21162;-80
2022/01/07 01:27:20;;;;;;;35.30;19.95;;;;;;;2.98;79.73;100479.94;1794910;79;20914;-81
2022/01/07 01:29:47;;;;;;;39.03;22.52;;;;;;;2.95;79.64;100469.65;1794523;79;21389;-81
2022/01/07 01:32:16;;;;;;;45.00;24.40;;;;;;;2.92;79.58;100467.63;1794801;79;20931;-79
2022/01/07 01:34:43;;;;;;;42.98;28.17;;;;;;;2.88;79.60;100472.88;1794806;80;20891;-79
2022/01/07 01:37:10;;;;;;;45.73;26.05;;;;;;;2.84;79.62;100477.74;1794825;79;21515;-80
2022/01/07 01:39:37;;;;;;;42.50;24.90;;;;;;;2.84;79.73;100484.67;1794598;79;21445;-80
2022/01/07 01:42:04;;;;;;;45.73;23.57;;;;;;;2.83;79.82;100477.81;1794644;79;20870;-78
2022/01/07 01:44:33;;;;;;;35.55;22.95;;;;;;;2.83;79.82;100473.92;1794470;80;20930;-79
2022/01/07 01:47:00;;;;;;;36.10;23.45;;;;;;;2.84;79.79;100469.97;1781000;80;20970;-80
2022/01/07 01:49:27;;;;;;;41.68;23.70;;;;;;;2.85;79.77;100469.55;1760267;81;21519;-79
2022/01/07 01:51:54;;;;;;;37.25;21.55;;;;;;;2.84;79.68;100474.31;1761967;81;21339;-77
2022/01/07 01:54:21;;;;;;;37.30;22.02;;;;;;;2.84;79.54;100480.78;1760379;81;20938;-78
2022/01/07 01:56:48;;;;;;;34.03;18.77;;;;;;;2.83;79.41;100476.52;1760112;80;20974;-78
2022/01/07 01:59:24;;;;;;;34.05;18.65;;;;;;;2.82;79.25;100483.86;1759995;80;20895;-78
2022/01/07 02:01:51;;;;;;;27.32;16.65;;;;;;;2.80;79.14;100486.95;1760102;81;21137;-78
2022/01/07 02:04:17;;;;;;;28.98;16.73;;;;;;;2.76;79.18;100482.75;1759891;81;20923;-78
2022/01/07 02:06:44;;;;;;;22.10;14.47;;;;;;;2.71;79.30;100486.77;1759862;81;20911;-78
2022/01/07 02:09:11;;;;;;;25.02;14.68;;;;;;;2.69;79.43;100485.55;1759996;80;20891;-79
2022/01/07 02:11:38;;;;;;;24.00;13.80;;;;;;;2.67;79.53;100487.33;1760395;81;20970;-79
2022/01/07 02:14:05;;;;;;;21.80;13.68;;;;;;;2.67;79.56;100480.86;1760038;81;21147;-78
2022/01/07 02:16:32;;;;;;;24.10;13.35;;;;;;;2.68;79.65;100484.28;1759857;80;21364;-79
2022/01/07 02:18:59;;;;;;;31.00;16.50;;;;;;;2.70;79.70;100498.03;1760017;80;20958;-79
2022/01/07 02:21:26;;;;;;;24.50;12.35;;;;;;;2.70;79.74;100501.47;1760102;81;21412;-79
2022/01/07 02:23:53;;;;;;;19.60;11.75;;;;;;;2.72;79.75;100504.47;1759964;81;21019;-78
2022/01/07 02:26:20;;;;;;;19.15;12.30;;;;;;;2.72;79.67;100500.14;1759962;81;21165;-79
2022/01/07 02:28:49;;;;;;;13.55;10.30;;;;;;;2.70;79.62;100493.70;1759941;81;20907;-78
2022/01/07 02:31:15;;;;;;;16.23;9.98;;;;;;;2.70;79.51;100500.63;1760378;81;20903;-80
2022/01/07 02:33:42;;;;;;;18.67;10.20;;;;;;;2.69;79.52;100504.09;1759944;81;21301;-80
2022/01/07 02:36:09;;;;;;;13.90;9.98;;;;;;;2.67;79.55;100504.61;1760234;81;20879;-80
2022/01/07 02:38:37;;;;;;;13.75;8.90;;;;;;;2.65;79.66;100515.45;1759988;80;21113;-81
2022/01/07 02:41:03;;;;;;;14.75;10.05;;;;;;;2.63;79.69;100521.13;1760188;80;21383;-80
2022/01/07 02:43:32;;;;;;;17.05;10.55;;;;;;;2.62;79.80;100516.82;1760009;81;20882;-79
2022/01/07 02:45:59;;;;;;;15.43;9.88;;;;;;;2.63;79.85;100525.84;1759925;81;21549;-79
2022/01/07 02:48:26;;;;;;;11.10;8.35;;;;;;;2.62;79.93;100528.47;1759910;80;20989;-80
2022/01/07 02:50:52;;;;;;;18.60;9.13;;;;;;;2.65;80.04;100523.22;1759991;80;21161;-78
2022/01/07 02:53:19;;;;;;;13.93;8.95;;;;;;;2.68;80.02;100523.12;1759937;80;20955;-81
2022/01/07 02:55:46;;;;;;;14.43;9.88;;;;;;;2.69;80.04;100525.67;1759911;80;20910;-80
2022/01/07 02:58:13;;;;;;;18.32;11.40;;;;;;;2.72;79.87;100526.03;1759966;81;20899;-81
2022/01/07 03:00:40;;;;;;;18.85;10.90;;;;;;;2.69;79.72;100523.51;1759977;80;20931;-78
2022/01/07 03:03:07;;;;;;;14.55;10.48;;;;;;;2.67;79.66;100533.93;1759888;81;21165;-78
2022/01/07 03:05:35;;;;;;;18.85;11.35;;;;;;;2.65;79.54;100543.48;1759874;81;20978;-80
2022/01/07 03:08:01;;;;;;;16.60;10.60;;;;;;;2.62;79.48;100551.34;1759999;80;21336;-79
2022/01/07 03:10:30;;;;;;;18.25;11.18;;;;;;;2.58;79.56;100551.45;1760003;80;20923;-79
2022/01/07 03:12:58;;;;;;;17.70;11.93;;;;;;;2.56;79.66;100552.80;1760173;81;21009;-80
2022/01/07 03:15:26;;;;;;;20.50;11.45;;;;;;;2.55;79.74;100561.45;1760104;80;21219;-79
2022/01/07 03:17:53;;;;;;;14.85;9.80;;;;;;;2.56;79.85;100571.38;1761654;81;20852;-75
2022/01/07 03:20:20;;;;;;;18.17;11.05;;;;;;;2.56;79.90;100576.55;1761257;81;20930;-79
2022/01/07 03:22:47;;;;;;;20.85;12.00;;;;;;;2.56;79.91;100573.52;1760201;81;20934;-79
2022/01/07 03:25:14;;;;;;;22.02;13.30;;;;;;;2.58;79.84;100581.22;1760321;81;21388;-79
2022/01/07 03:27:41;;;;;;;19.95;13.20;;;;;;;2.59;79.85;100577.75;1759999;81;21104;-81
2022/01/07 03:30:10;;;;;;;22.02;12.28;;;;;;;2.58;79.87;100581.22;1760054;81;20977;-81
2022/01/07 03:32:37;;;;;;;18.95;12.20;;;;;;;2.56;79.78;100580.44;1760126;80;20879;-80
2022/01/07 03:35:06;;;;;;;20.85;12.70;;;;;;;2.53;79.68;100583.94;1760374;81;20898;-80
2022/01/07 03:37:34;;;;;;;24.40;12.47;;;;;;;2.49;79.60;100581.05;1760142;81;20918;-80
2022/01/07 03:40:01;;;;;;;26.23;13.55;;;;;;;2.44;79.59;100586.77;1760376;81;21280;-81
2022/01/07 03:42:27;;;;;;;26.60;14.15;;;;;;;2.40;79.66;100590.33;1760064;81;20946;-78
2022/01/07 03:44:54;;;;;;;23.38;12.45;;;;;;;2.34;79.75;100597.83;1760248;80;20875;-79
2022/01/07 03:47:22;;;;;;;18.45;11.08;;;;;;;2.28;79.89;100605.29;1760014;80;20974;-80
2022/01/07 03:49:49;;;;;;;21.37;12.15;;;;;;;2.25;80.04;100610.55;1760051;81;21416;-80
2022/01/07 03:52:15;;;;;;;17.15;10.32;;;;;;;2.24;80.16;100609.30;1760004;81;21142;-79
2022/01/07 03:54:43;;;;;;;17.35;11.50;;;;;;;2.24;80.25;100613.17;1760091;81;21618;-80
2022/01/07 03:57:11;;;;;;;16.73;10.95;;;;;;;2.22;80.35;100611.94;1760043;81;20899;-81
2022/01/07 03:59:39;;;;;;;16.97;11.60;;;;;;;2.24;80.41;100622.23;1761077;81;20926;-79
2022/01/07 04:02:06;;;;;;;17.00;11.25;;;;;;;2.24;80.44;100615.31;1761194;81;20997;-81
2022/01/07 04:04:32;;;;;;;16.25;11.75;;;;;;;2.25;80.43;100605.38;1760193;80;21352;-80
2022/01/07 04:06:59;;;;;;;16.15;10.85;;;;;;;2.25;80.40;100617.48;1760104;81;21079;-79
2022/01/07 04:09:27;;;;;;;13.60;10.13;;;;;;;2.23;80.38;100615.38;1760100;81;20978;-80
2022/01/07 04:11:58;;;;;;;15.93;10.48;;;;;;;2.23;80.33;100617.95;1759971;81;21397;-79
2022/01/07 04:14:24;;;;;;;16.05;10.85;;;;;;;2.20;80.26;100622.77;1760200;81;20910;-80
2022/01/07 04:16:51;;;;;;;19.98;10.72;;;;;;;2.18;80.33;100632.73;1760804;80;21134;-76
2022/01/07 04:19:18;;;;;;;14.18;11.20;;;;;;;2.14;80.34;100643.61;1761787;81;21475;-79
2022/01/07 04:21:47;;;;;;;20.30;12.10;;;;;;;2.10;80.31;100644.57;1760425;81;20899;-80
2022/01/07 04:24:14;;;;;;;20.60;12.15;;;;;;;2.05;80.29;100648.56;1760104;80;20887;-80
2022/01/07 04:26:41;;;;;;;16.57;11.03;;;;;;;2.01;80.19;100652.56;1760039;80;20915;-80
2022/01/07 04:29:08;;;;;;;17.25;10.80;;;;;;;1.93;80.18;100649.30;1760125;81;21570;-80
2022/01/07 04:31:34;;;;;;;17.80;11.78;;;;;;;1.86;80.32;100645.56;1760039;81;21441;-77
2022/01/07 04:34:01;;;;;;;18.02;12.45;;;;;;;1.80;80.46;100655.19;1760092;80;20882;-78
2022/01/07 04:36:28;;;;;;;21.30;12.80;;;;;;;1.75;80.59;100659.18;1759964;81;20978;-78
2022/01/07 04:38:55;;;;;;;19.57;12.58;;;;;;;1.71;80.79;100664.45;1760094;80;20863;-77
2022/01/07 04:41:22;;;;;;;21.40;13.08;;;;;;;1.67;80.91;100668.87;1760128;80;21974;-79
2022/01/07 04:43:49;;;;;;;19.23;12.88;;;;;;;1.65;81.07;100672.77;1759977;81;20887;-79
2022/01/07 04:46:16;;;;;;;20.48;12.30;;;;;;;1.64;81.23;100673.63;1761628;80;21298;-78
2022/01/07 04:48:43;;;;;;;20.23;12.40;;;;;;;1.67;81.43;100677.91;1760768;80;20895;-79
2022/01/07 04:51:10;;;;;;;18.95;12.37;;;;;;;1.70;81.53;100681.70;1760108;81;20914;-78
2022/01/07 04:53:37;;;;;;;21.52;12.47;;;;;;;1.74;81.53;100680.77;1760343;81;21950;-80
2022/01/07 04:56:04;;;;;;;20.97;12.58;;;;;;;1.78;81.50;100690.16;1759925;81;20993;-80
2022/01/07 04:58:31;;;;;;;21.12;13.15;;;;;;;1.80;81.38;100688.80;1760233;81;21321;-80
2022/01/07 05:01:01;;;;;;;23.38;14.93;;;;;;;1.81;81.35;100696.98;1759980;81;20938;-80
2022/01/07 05:03:28;;;;;;;23.75;12.65;;;;;;;1.82;81.26;100707.30;1760025;81;20958;-81
2022/01/07 05:06:11;;;;;;;23.52;15.25;;;;;;;1.81;81.05;100706.88;1760065;81;21158;-79
2022/01/07 05:08:23;;;;;;;27.80;15.98;;;;;;;1.76;80.96;100704.84;1757195;81;20843;-81
2022/01/07 05:10:50;;;;;;;25.77;15.53;;;;;;;1.72;80.88;100708.83;1760072;81;21001;-82
2022/01/07 05:13:17;;;;;;;26.95;16.05;;;;;;;1.68;80.77;100717.08;1760079;81;20982;-80
2022/01/07 05:15:44;;;;;;;21.82;14.65;;;;;;;1.62;80.70;100720.66;1760000;80;20883;-79
2022/01/07 05:18:11;;;;;;;18.02;12.25;;;;;;;1.57;80.83;100727.64;1759844;81;21165;-78
2022/01/07 05:20:38;;;;;;;17.60;12.43;;;;;;;1.52;80.92;100726.90;1759950;80;20922;-78
2022/01/07 05:23:05;;;;;;;14.23;10.68;;;;;;;1.48;81.03;100733.02;1760318;80;21384;-79
2022/01/07 05:25:34;;;;;;;14.98;10.45;;;;;;;1.48;81.16;100734.30;1760008;80;20891;-80
2022/01/07 05:28:00;;;;;;;15.25;10.58;;;;;;;1.48;81.21;100735.59;1760448;81;20923;-79
2022/01/07 05:30:27;;;;;;;18.25;11.80;;;;;;;1.48;81.19;100741.21;1760117;81;21529;-79
2022/01/07 05:32:54;;;;;;;18.62;11.90;;;;;;;1.49;81.20;100743.77;1760241;81;21389;-80
2022/01/07 05:35:25;;;;;;;19.87;12.90;;;;;;;1.51;81.06;100741.98;1759935;81;20918;-79
2022/01/07 05:37:50;;;;;;;19.35;12.18;;;;;;;1.51;81.03;100749.73;1759858;81;20930;-80
2022/01/07 05:40:16;;;;;;;21.00;12.88;;;;;;;1.50;81.00;100754.51;1759997;80;20966;-80
2022/01/07 05:42:43;;;;;;;24.75;13.60;;;;;;;1.49;80.93;100768.32;1760228;81;21456;-79
2022/01/07 05:45:10;;;;;;;29.98;13.70;;;;;;;1.47;80.80;100773.08;1759958;81;20919;-79
2022/01/07 05:47:37;;;;;;;27.52;14.45;;;;;;;1.43;80.63;100771.87;1759834;80;20863;-79
2022/01/07 05:50:06;;;;;;;24.57;15.65;;;;;;;1.41;80.49;100782.67;1760360;81;20903;-80
2022/01/07 05:52:34;;;;;;;25.02;15.00;;;;;;;1.37;80.41;100788.77;1759941;81;21428;-80
2022/01/07 05:55:01;;;;;;;23.42;16.23;;;;;;;1.32;80.44;100784.14;1760356;81;21470;-81
2022/01/07 05:57:28;;;;;;;36.45;22.75;;;;;;;1.30;80.47;100788.94;1760704;81;20964;-80
2022/01/07 05:59:55;;;;;;;27.58;17.55;;;;;;;1.29;80.46;100789.80;1761906;80;20914;-80
2022/01/07 06:02:22;;;;;;;30.37;17.77;;;;;;;1.30;80.54;100796.69;1760600;81;21416;-80
2022/01/07 06:04:49;;;;;;;27.07;16.15;;;;;;;1.32;80.52;100800.09;1760305;80;20871;-80
2022/01/07 06:07:16;;;;;;;25.30;14.83;;;;;;;1.33;80.45;100807.80;1759979;81;21529;-79
2022/01/07 06:09:42;;;;;;;23.87;14.80;;;;;;;1.36;80.36;100811.62;1760160;81;20870;-80
2022/01/07 06:12:12;;;;;;;21.30;13.38;;;;;;;1.37;80.27;100817.19;1759998;81;21472;-81
2022/01/07 06:14:39;;;;;;;22.17;12.80;;;;;;;1.38;80.17;100815.04;1762030;81;20918;-79
2022/01/07 06:17:08;;;;;;;25.20;14.85;;;;;;;1.39;80.07;100814.59;1760488;81;21321;-80
2022/01/07 06:19:35;;;;;;;23.35;15.05;;;;;;;1.39;79.90;100815.44;1760194;80;21164;-80
2022/01/07 06:22:02;;;;;;;20.15;12.88;;;;;;;1.39;79.83;100814.14;1759923;81;20883;-81
2022/01/07 06:24:29;;;;;;;20.50;13.28;;;;;;;1.40;79.71;100817.57;1760312;81;20911;-79
2022/01/07 06:26:56;;;;;;;17.95;12.60;;;;;;;1.41;79.62;100827.05;1759959;80;20991;-79
2022/01/07 06:29:23;;;;;;;20.02;13.55;;;;;;;1.42;79.58;100820.98;1760359;81;20879;-80
2022/01/07 06:31:49;;;;;;;21.68;13.32;;;;;;;1.45;79.43;100837.29;1760035;81;21105;-79
2022/01/07 06:34:20;;;;;;;25.17;13.35;;;;;;;1.47;79.32;100830.81;1760433;80;20977;-79
2022/01/07 06:36:45;;;;;;;21.82;14.35;;;;;;;1.51;79.15;100836.75;1760086;81;20907;-80
2022/01/07 06:39:12;;;;;;;30.12;16.45;;;;;;;1.54;78.96;100841.44;1760265;81;20852;-81
2022/01/07 06:41:39;;;;;;;27.48;15.65;;;;;;;1.56;78.80;100845.30;1759969;81;21459;-81
2022/01/07 06:44:06;;;;;;;26.02;16.00;;;;;;;1.56;78.70;100849.17;1760236;81;21549;-79
2022/01/07 06:46:37;;;;;;;24.90;13.60;;;;;;;1.56;78.63;100855.18;1760281;81;20883;-78
2022/01/07 06:49:03;;;;;;;18.82;11.28;;;;;;;1.57;78.68;100855.58;1760028;80;21416;-81
2022/01/07 06:51:31;;;;;;;14.73;10.58;;;;;;;1.59;78.60;100857.70;1759885;81;20966;-81
2022/01/07 06:53:59;;;;;;;20.02;11.18;;;;;;;1.62;78.60;100860.24;1760018;81;20926;-81
2022/01/07 06:56:27;;;;;;;17.05;12.45;;;;;;;1.66;78.52;100867.03;1760145;81;21166;-81
2022/01/07 06:58:54;;;;;;;14.63;10.15;;;;;;;1.70;78.54;100866.55;1759833;80;20875;-79
2022/01/07 07:03:03;;;;;;;18.17;9.85;;;;;;;1.84;78.57;100874.02;1884358;75;22434;-79
2022/01/07 07:05:30;;;;;;;18.07;11.80;;;;;;;1.87;78.55;100881.73;1860828;77;20864;-78
2022/01/07 07:07:56;;;;;;;17.50;12.88;;;;;;;1.98;78.34;100881.50;1860964;76;21772;-79
2022/01/07 07:10:25;;;;;;;16.37;10.13;;;;;;;2.04;78.06;100883.52;1860678;77;20824;-79
2022/01/07 07:12:53;;;;;;;13.95;10.28;;;;;;;2.08;77.84;100886.45;1860855;77;20910;-79
2022/01/07 07:15:20;;;;;;;16.95;11.08;;;;;;;2.08;77.78;100895.50;1860811;76;20918;-80
2022/01/07 07:17:48;;;;;;;16.02;10.58;;;;;;;2.10;77.83;100894.64;1860667;76;20871;-78
2022/01/07 07:20:15;;;;;;;11.70;9.78;;;;;;;2.12;77.86;100892.43;1860678;77;21206;-80
2022/01/07 07:22:42;;;;;;;17.27;11.45;;;;;;;2.15;77.88;100905.28;1860589;77;21349;-80
2022/01/07 07:25:09;;;;;;;15.65;11.12;;;;;;;2.19;77.83;100900.91;1860756;77;21432;-80
2022/01/07 07:27:37;;;;;;;16.27;11.05;;;;;;;2.22;77.69;100909.89;1860701;77;21432;-81
2022/01/07 07:30:08;;;;;;;18.37;11.78;;;;;;;2.24;77.74;100914.14;1860595;76;20863;-80
2022/01/07 07:32:36;;;;;;;18.07;11.22;;;;;;;2.25;77.44;100902.09;1861139;77;21094;-81
2022/01/07 07:37:47;;;;;;;14.83;11.10;;;;;;;2.22;77.36;100914.65;1860704;77;21508;-80
2022/01/07 07:40:15;;;;;;;18.73;11.73;;;;;;;2.23;77.37;100918.08;1860686;77;21483;-78
2022/01/07 07:42:42;;;;;;;20.40;13.00;;;;;;;2.24;77.40;100923.66;1861213;77;20898;-82
2022/01/07 07:45:13;;;;;;;20.10;13.43;;;;;;;2.24;77.43;100918.03;1862679;77;21178;-80
2022/01/07 07:47:40;;;;;;;28.35;12.50;;;;;;;2.28;77.33;100925.30;1860711;76;20879;-81
2022/01/07 07:50:09;;;;;;;32.55;18.50;;;;;;;2.33;77.35;100918.73;1860779;76;21393;-82
2022/01/07 07:52:35;;;;;;;22.07;13.83;;;;;;;2.37;77.28;100925.55;1860932;76;21479;-82
2022/01/07 07:55:02;;;;;;;19.92;11.95;;;;;;;2.40;77.14;100926.34;1860658;76;20890;-81
2022/01/07 07:57:30;;;;;;;20.35;12.82;;;;;;;2.45;76.64;100928.84;1861111;77;21095;-81
2022/01/07 07:59:56;;;;;;;18.90;12.93;;;;;;;2.46;76.33;100926.19;1860520;77;20962;-82
2022/01/07 08:02:23;;;;;;;17.40;12.18;;;;;;;2.48;76.22;100933.48;1859581;76;21340;-81
2022/01/07 08:04:50;;;;;;;16.30;11.70;;;;;;;2.51;75.78;100934.30;1860702;76;20848;-82
2022/01/07 08:07:17;;;;;;;17.40;12.30;;;;;;;2.52;75.58;100935.58;1860846;77;20928;-82
2022/01/07 08:09:49;;;;;;;23.52;13.22;;;;;;;2.52;75.52;100940.75;1861928;76;21510;-82
2022/01/07 08:12:23;;;;;;;16.00;9.98;;;;;;;2.53;75.41;100946.33;1861039;77;21062;-81
2022/01/07 08:17:31;;;;;;;21.02;10.70;;;;;;;2.58;75.00;100946.22;1860088;77;20915;-84
2022/01/07 08:19:58;;;;;;;19.37;10.70;;;;;;;2.61;74.92;100950.91;1860304;76;21447;-81
2022/01/07 08:22:25;;;;;;;21.10;12.35;;;;;;;2.68;75.06;100956.80;1860159;77;21093;-82
2022/01/07 08:24:52;;;;;;;13.22;10.28;;;;;;;2.75;74.65;100953.64;1859982;77;20856;-80
2022/01/07 08:27:21;;;;;;;15.60;10.30;;;;;;;2.79;74.27;100961.30;1860283;76;20903;-79
2022/01/07 08:29:49;;;;;;;16.25;9.78;;;;;;;2.81;73.62;100962.57;1860225;77;20946;-80
2022/01/07 08:35:04;;;;;;;12.33;8.75;;;;;;;2.84;73.86;100972.40;1860100;77;21829;-82
2022/01/07 08:37:30;;;;;;;12.13;9.10;;;;;;;2.88;73.60;100964.12;1860955;76;21361;-81
2022/01/07 08:39:57;;;;;;;13.20;9.83;;;;;;;2.91;73.33;100966.64;1861032;77;20907;-82
2022/01/07 08:42:24;;;;;;;16.10;10.08;;;;;;;2.93;73.05;100964.02;1860527;77;20847;-80
2022/01/07 08:44:52;;;;;;;16.30;10.98;;;;;;;2.93;73.01;100966.61;1860027;77;20872;-82
2022/01/07 08:47:22;;;;;;;17.60;11.83;;;;;;;2.93;72.73;100970.50;1860218;77;21120;-79
2022/01/07 08:49:50;;;;;;;17.57;11.75;;;;;;;2.93;72.74;100971.79;1859960;77;21350;-80
2022/01/07 08:52:17;;;;;;;20.23;12.18;;;;;;;2.93;72.44;100979.11;1860421;77;20895;-82
2022/01/07 08:54:44;;;;;;;17.45;10.50;;;;;;;2.94;72.39;100981.28;1859997;77;20918;-83
2022/01/07 08:57:11;;;;;;;15.85;10.05;;;;;;;2.96;72.50;100985.95;1860537;77;20843;-81
2022/01/07 08:59:37;;;;;;;13.30;9.25;;;;;;;2.99;72.20;100995.81;1860035;77;21127;-83
2022/01/07 09:02:04;;;;;;;20.17;11.63;;;;;;;3.08;72.09;101001.23;1856706;76;20960;-81
2022/01/07 09:04:32;;;;;;;16.97;12.05;;;;;;;3.18;72.15;100999.27;1849308;77;20886;-81
2022/01/07 09:06:59;;;;;;;22.87;15.45;;;;;;;3.33;71.98;101006.69;1849520;77;20913;-83
2022/01/07 09:09:26;;;;;;;34.33;21.80;;;;;;;3.46;71.42;101011.14;1851391;77;20862;-86
2022/01/07 09:11:53;;;;;;;31.93;19.95;;;;;;;3.51;70.25;101020.95;1850510;77;21052;-81
2022/01/07 09:14:20;;;;;;;28.32;17.30;;;;;;;3.47;69.13;101019.34;1850595;77;20866;-84
2022/01/07 09:16:47;;;;;;;25.37;15.15;;;;;;;3.40;68.96;101039.38;1849852;77;20921;-86
2022/01/07 09:19:17;;;;;;;20.65;12.55;;;;;;;3.29;68.68;101033.56;1850143;76;21098;-85
2022/01/07 09:21:44;;;;;;;17.90;10.80;;;;;;;3.19;68.30;101039.87;1849514;77;20935;-88
2022/01/07 09:24:11;;;;;;;13.95;8.68;;;;;;;3.06;68.19;101041.42;1849327;77;21124;-85
2022/01/07 09:26:42;;;;;;;13.25;8.13;;;;;;;2.98;68.15;101042.05;1849448;77;21003;-85
2022/01/07 09:29:08;;;;;;;13.62;7.92;;;;;;;2.94;68.43;101044.30;1850006;76;20865;-86
2022/01/07 09:31:36;;;;;;;11.90;7.72;;;;;;;2.93;68.62;101049.50;1849488;77;21430;-86
2022/01/07 09:34:03;;;;;;;9.53;7.00;;;;;;;2.95;68.50;101049.03;1849516;77;20995;-84
2022/01/07 09:36:30;;;;;;;10.90;7.65;;;;;;;2.96;68.12;101045.54;1849433;77;21098;-85
2022/01/07 09:38:57;;;;;;;15.53;7.53;;;;;;;2.96;68.20;101045.54;1849426;77;20973;-80
2022/01/07 09:41:24;;;;;;;8.55;5.87;;;;;;;2.98;68.39;101056.72;1849268;77;21486;-83
2022/01/07 09:43:52;;;;;;;8.30;6.12;;;;;;;2.99;68.24;101065.77;1849141;77;21361;-84
2022/01/07 09:46:18;;;;;;;7.50;4.87;;;;;;;3.00;68.11;101061.02;1849124;76;20929;-84
2022/01/07 09:48:45;;;;;;;3.50;3.20;;;;;;;2.99;67.70;101059.29;1849279;77;21714;-80
2022/01/07 09:51:14;;;;;;;4.53;3.65;;;;;;;2.95;67.22;101068.00;1849111;77;20921;-84
2022/01/07 09:53:41;;;;;;;5.33;4.53;;;;;;;2.87;67.35;101068.19;1849314;77;21362;-83
2022/01/07 09:56:08;;;;;;;4.85;3.80;;;;;;;2.83;67.40;101069.58;1849224;77;20952;-83
2022/01/07 09:58:36;;;;;;;5.78;3.12;;;;;;;2.80;67.29;101064.02;1849355;77;21441;-84
2022/01/07 10:01:07;;;;;;;4.00;3.60;;;;;;;2.77;67.33;101069.25;1849303;77;21307;-83
2022/01/07 10:03:41;;;;;;;5.78;4.05;;;;;;;2.75;67.47;101079.23;1837320;75;20942;-83
2022/01/07 10:06:21;;;;;;;6.55;4.75;;;;;;;2.76;67.46;101065.38;1834989;77;20950;-84
2022/01/07 10:09:10;;;;;;;6.10;3.98;;;;;;;2.76;67.54;101066.26;1835032;77;20938;-84
2022/01/07 10:11:37;;;;;;;4.42;3.80;;;;;;;2.85;68.04;101066.52;1834690;77;20867;-84
2022/01/07 10:14:21;;;;;;;7.55;4.87;;;;;;;2.96;67.87;101061.08;1834819;77;21379;-83
2022/01/07 10:16:57;;;;;;;10.25;6.72;;;;;;;3.03;66.94;101067.41;1834724;77;20950;-83
2022/01/07 10:19:39;;;;;;;12.98;8.35;;;;;;;3.05;66.62;101063.50;1834998;76;20891;-84
2022/01/07 10:22:08;;;;;;;18.23;10.28;;;;;;;3.03;66.03;101075.63;1834661;76;20974;-84
2022/01/07 10:25:02;;;;;;;16.35;11.33;;;;;;;2.99;65.93;101067.06;1834987;76;20875;-80
2022/01/07 10:27:39;;;;;;;23.83;15.20;;;;;;;3.00;65.85;101066.61;1834943;77;21332;-79
2022/01/07 10:30:14;;;;;;;17.85;11.75;;;;;;;2.98;65.81;101073.56;1834977;77;21500;-74
2022/01/07 10:32:41;;;;;;;18.12;10.78;;;;;;;2.99;65.35;101077.42;1834501;77;20914;-74
2022/01/07 10:35:17;;;;;;;10.78;6.25;;;;;;;2.93;65.61;101076.70;1834962;76;20914;-74
2022/01/07 10:37:57;;;;;;;15.08;7.85;;;;;;;2.94;65.92;101073.24;1834451;77;20894;-75
2022/01/07 10:40:33;;;;;;;10.80;6.60;;;;;;;3.02;66.65;101081.68;1835948;77;20867;-73
2022/01/07 10:43:24;;;;;;;8.95;6.22;;;;;;;3.09;66.39;101082.83;1834618;77;20953;-75
2022/01/07 10:45:54;;;;;;;12.28;7.15;;;;;;;3.19;66.22;101079.58;1834092;77;20886;-73
2022/01/07 10:48:26;;;;;;;8.00;4.75;;;;;;;3.28;65.64;101083.71;1834854;76;20855;-73
2022/01/07 10:50:55;;;;;;;5.85;3.92;;;;;;;3.32;65.36;101091.38;1835250;77;21353;-75
2022/01/07 10:53:29;;;;;;;10.72;5.78;;;;;;;3.44;66.73;101093.28;1834364;77;21078;-75
2022/01/07 10:56:06;;;;;;;13.27;6.30;;;;;;;3.66;65.68;101095.78;1835057;77;21988;-73
2022/01/07 10:58:51;;;;;;;10.48;5.08;;;;;;;3.76;64.87;101104.64;1834575;77;20843;-75
2022/01/07 11:01:27;;;;;;;5.72;4.87;;;;;;;3.80;64.99;101102.39;1834609;77;20879;-75
2022/01/07 11:03:57;;;;;;;3.77;3.25;;;;;;;3.89;64.13;101099.14;1834459;75;21394;-74
2022/01/07 11:06:27;;;;;;;4.30;3.47;;;;;;;3.92;63.96;101096.46;1834044;77;21149;-75
2022/01/07 11:08:55;;;;;;;3.70;2.77;;;;;;;3.96;63.90;101103.73;1834573;77;20926;-73
2022/01/07 11:11:24;;;;;;;4.72;2.85;;;;;;;4.05;64.29;101105.25;1834604;78;20855;-80
2022/01/07 11:13:51;;;;;;;3.02;2.75;;;;;;;4.15;64.84;101099.77;1834941;78;20950;-77
2022/01/07 11:16:19;;;;;;;3.75;2.40;;;;;;;4.24;63.50;101106.46;1834605;77;21420;-76
2022/01/07 11:18:48;;;;;;;2.95;2.25;;;;;;;4.23;62.78;101107.82;1834379;78;20919;-76
2022/01/07 11:21:17;;;;;;;4.60;1.82;;;;;;;4.18;62.50;101112.25;1834565;78;20946;-76
2022/01/07 11:23:45;;;;;;;2.60;2.15;;;;;;;4.17;63.00;101114.01;1834578;76;20890;-76
2022/01/07 11:26:13;;;;;;;3.70;2.22;;;;;;;4.22;63.17;101117.78;1806618;77;20891;-77
2022/01/07 11:28:59;;;;;;;2.50;1.60;;;;;;;4.26;62.49;101116.36;1834585;77;20985;-76
2022/01/07 11:31:27;;;;;;;3.25;1.85;;;;;;;4.25;62.65;101119.87;1834012;77;21100;-76
2022/01/07 11:34:22;;;;;;;2.83;2.33;;;;;;;4.25;62.49;101120.32;1834740;77;20954;-76
2022/01/07 11:36:49;;;;;;;2.17;1.82;;;;;;;4.19;62.34;101123.91;1829052;77;20931;-76